createdAt,value
2022-08-05T00:02:51.570Z,30.83
2022-08-05T00:06:04.679Z,30.65
2022-08-05T00:09:19.634Z,30.01
2022-08-05T00:12:23.285Z,29.00
2022-08-05T00:15:55.953Z,28.56
2022-08-05T00:18:50.009Z,28.33
2022-08-05T00:21:54.068Z,27.52
2022-08-05T00:24:57.191Z,26.79
2022-08-05T00:28:00.532Z,26.21
2022-08-05T00:31:07.591Z,25.79
2022-08-05T00:34:55.263Z,25.65
2022-08-05T00:37:51.343Z,25.72
2022-08-05T00:40:59.668Z,25.95
2022-08-05T00:44:03.556Z,25.94
2022-08-05T00:47:06.347Z,26.21
2022-08-05T00:50:13.762Z,25.61
2022-08-05T00:54:00.921Z,25.45
2022-08-05T00:56:51.319Z,25.26
2022-08-05T00:59:55.175Z,25.28
2022-08-05T01:02:59.942Z,25.38
2022-08-05T01:06:05.324Z,25.46
2022-08-05T01:09:08.646Z,25.39
2022-08-05T01:12:18.652Z,25.66
2022-08-05T01:15:36.424Z,25.87
2022-08-05T01:18:48.126Z,25.79
2022-08-05T01:22:34.185Z,25.65
2022-08-05T01:25:56.245Z,25.50
2022-08-05T01:29:25.752Z,25.43
2022-08-05T01:32:32.430Z,25.22
2022-08-05T01:35:51.680Z,25.13
2022-08-05T01:39:01.216Z,24.99
2022-08-05T01:42:06.777Z,24.91
2022-08-05T01:45:16.479Z,24.89
2022-08-05T01:48:20.960Z,24.74
2022-08-05T01:51:25.895Z,24.68
2022-08-05T01:54:46.520Z,24.66
2022-08-05T01:58:14.965Z,24.54
2022-08-05T02:01:23.258Z,24.58
2022-08-05T02:04:37.513Z,24.56
2022-08-05T02:07:47.403Z,24.38
2022-08-05T02:11:12.049Z,24.43
2022-08-05T02:14:25.949Z,24.40
2022-08-05T02:18:31.908Z,24.52
2022-08-05T02:21:15.946Z,24.58
2022-08-05T02:24:23.086Z,24.67
2022-08-05T02:27:29.715Z,24.85
2022-08-05T02:30:57.351Z,25.02
2022-08-05T02:34:11.569Z,25.12
2022-08-05T02:40:21.505Z,25.06
2022-08-05T02:43:26.078Z,25.28
2022-08-05T02:46:29.690Z,25.66
2022-08-05T02:49:37.731Z,26.31
2022-08-05T02:52:47.028Z,26.28
2022-08-05T02:56:00.389Z,26.42
2022-08-05T02:59:07.173Z,26.69
2022-08-05T03:02:11.991Z,26.85
2022-08-05T03:05:17.721Z,27.01
2022-08-05T03:08:26.966Z,26.85
2022-08-05T03:11:54.362Z,26.52
2022-08-05T03:14:56.993Z,26.41
2022-08-05T03:18:00.629Z,26.40
2022-08-05T03:21:03.984Z,26.77
2022-08-05T03:24:11.290Z,26.49
2022-08-05T03:27:17.000Z,26.29
2022-08-05T03:30:20.752Z,26.24
2022-08-05T03:33:24.609Z,26.38
2022-08-05T03:36:46.230Z,26.49
2022-08-05T03:39:59.273Z,26.61
2022-08-05T03:43:58.793Z,26.57
2022-08-05T03:46:29.695Z,26.45
2022-08-05T03:49:51.880Z,26.24
2022-08-05T03:55:00.446Z,26.17
2022-08-05T03:56:41.245Z,26.06
2022-08-05T04:00:12.269Z,26.32
2022-08-05T04:03:28.611Z,26.23
2022-08-05T04:06:35.679Z,26.38
2022-08-05T04:09:39.321Z,26.59
2022-08-05T04:12:58.787Z,26.78
2022-08-05T04:16:04.447Z,26.80
2022-08-05T04:19:12.010Z,26.72
2022-08-05T04:22:20.449Z,26.53
2022-08-05T04:25:56.577Z,26.54
2022-08-05T04:28:52.137Z,26.74
2022-08-05T04:31:56.892Z,27.01
2022-08-05T04:34:59.920Z,27.08
2022-08-05T04:38:06.628Z,27.23
2022-08-05T04:41:10.240Z,27.48
2022-08-05T04:44:13.591Z,27.64
2022-08-05T04:47:18.709Z,27.90
2022-08-05T04:50:34.422Z,28.11
2022-08-05T04:53:46.564Z,28.25
2022-08-05T04:56:49.678Z,28.26
2022-08-05T04:59:52.777Z,28.06
2022-08-05T05:02:59.137Z,28.02
2022-08-05T05:06:39.234Z,28.05
2022-08-05T05:09:30.126Z,28.13
2022-08-05T05:12:36.769Z,28.19
2022-08-05T05:15:56.797Z,28.12
2022-08-05T05:19:18.860Z,28.13
2022-08-05T05:22:26.446Z,28.15
2022-08-05T05:25:32.647Z,28.17
2022-08-05T05:28:44.819Z,28.31
2022-08-05T05:31:48.183Z,28.33
2022-08-05T05:34:52.450Z,28.38
2022-08-05T05:38:00.122Z,28.49
2022-08-05T05:41:04.356Z,28.32
2022-08-05T05:44:35.662Z,28.02
2022-08-05T05:48:08.092Z,28.00
2022-08-05T05:50:59.222Z,27.96
2022-08-05T05:54:18.487Z,27.99
2022-08-05T05:57:22.720Z,27.99
2022-08-05T06:00:27.762Z,27.92
2022-08-05T06:03:54.016Z,27.82
2022-08-05T06:06:57.727Z,27.97
2022-08-05T06:10:10.255Z,28.06
2022-08-05T06:13:14.042Z,28.05
2022-08-05T06:16:31.635Z,27.99
2022-08-05T06:19:35.932Z,28.06
2022-08-05T06:22:40.410Z,28.28
2022-08-05T06:26:12.565Z,28.48
2022-08-05T06:29:42.821Z,28.48
2022-08-05T06:32:29.921Z,28.25
2022-08-05T06:36:07.802Z,27.95
2022-08-05T06:38:56.198Z,27.71
2022-08-05T06:42:04.047Z,27.58
2022-08-05T06:45:09.358Z,27.34
2022-08-05T06:48:52.671Z,27.31
2022-08-05T06:51:35.712Z,27.59
2022-08-05T06:54:43.890Z,27.85
2022-08-05T06:57:57.981Z,27.94
2022-08-05T07:01:07.416Z,27.80
2022-08-05T07:04:10.781Z,27.56
2022-08-05T07:07:24.153Z,27.57
2022-08-05T07:10:52.367Z,27.66
2022-08-05T07:14:20.045Z,27.90
2022-08-05T07:17:59.397Z,27.93
2022-08-05T07:20:46.894Z,27.81
2022-08-05T07:23:52.344Z,27.66
2022-08-05T07:26:55.460Z,27.63
2022-08-05T07:30:27.778Z,27.79
2022-08-05T07:33:37.045Z,27.84
2022-08-05T07:36:40.580Z,27.77
2022-08-05T07:40:26.679Z,27.66
2022-08-05T07:43:14.536Z,27.39
2022-08-05T07:46:25.189Z,27.29
2022-08-05T07:49:28.831Z,27.14
2022-08-05T07:52:31.975Z,27.05
2022-08-05T07:55:44.172Z,26.96
2022-08-05T07:58:59.183Z,26.88
2022-08-05T08:02:03.308Z,26.84
2022-08-05T08:05:06.753Z,26.84
2022-08-05T08:08:12.905Z,26.80
2022-08-05T08:11:18.493Z,26.73
2022-08-05T08:14:30.814Z,26.68
2022-08-05T08:17:34.432Z,26.67
2022-08-05T08:20:45.344Z,26.66
2022-08-05T08:24:04.924Z,26.71
2022-08-05T08:27:09.238Z,26.69
2022-08-05T08:30:29.727Z,26.71
2022-08-05T08:33:38.016Z,26.73
2022-08-05T08:36:49.140Z,26.67
2022-08-05T08:39:58.154Z,26.60
2022-08-05T08:44:56.523Z,26.56
2022-08-05T08:46:28.183Z,26.43
2022-08-05T08:50:06.011Z,26.26
2022-08-05T08:53:12.221Z,26.01
2022-08-05T08:56:16.024Z,25.69
2022-08-05T08:59:21.641Z,25.40
2022-08-05T09:02:31.086Z,25.17
2022-08-05T09:05:38.782Z,25.00
2022-08-05T09:08:59.703Z,24.89
2022-08-05T09:12:20.068Z,24.85
2022-08-05T09:15:24.523Z,24.77
2022-08-05T09:18:28.947Z,24.74
2022-08-05T09:22:22.972Z,24.71
2022-08-05T09:25:14.049Z,24.71
2022-08-05T09:28:31.452Z,24.63
2022-08-05T09:32:39.942Z,24.62
2022-08-05T09:35:00.465Z,24.61
2022-08-05T09:38:16.694Z,24.51
2022-08-05T09:41:21.573Z,24.33
2022-08-05T09:44:45.194Z,24.18
2022-08-05T09:47:56.024Z,24.00
2022-08-05T09:51:02.541Z,23.91
2022-08-05T09:54:10.004Z,23.85
2022-08-05T09:57:33.758Z,23.83
2022-08-05T10:00:38.938Z,23.75
2022-08-05T10:04:00.578Z,23.78
2022-08-05T10:07:19.458Z,23.84
2022-08-05T10:10:28.153Z,23.90
2022-08-05T10:13:45.676Z,23.85
2022-08-05T10:16:52.888Z,23.66
2022-08-05T10:20:04.135Z,23.56
2022-08-05T10:23:55.802Z,23.47
2022-08-05T10:26:52.261Z,23.39
2022-08-05T10:30:40.987Z,23.33
2022-08-05T10:33:18.987Z,23.30
2022-08-05T10:36:23.533Z,23.26
2022-08-05T10:39:59.035Z,23.24
2022-08-05T10:43:39.338Z,23.21
2022-08-05T10:46:50.978Z,23.16
2022-08-05T10:50:20.695Z,23.22
2022-08-05T10:53:45.266Z,23.10
2022-08-05T10:56:53.090Z,22.94
2022-08-05T11:00:20.509Z,22.85
2022-08-05T11:03:26.987Z,22.74
2022-08-05T11:06:31.106Z,22.66
2022-08-05T11:09:47.692Z,22.68
2022-08-05T11:12:55.218Z,22.64
2022-08-05T11:16:33.747Z,22.72
2022-08-05T11:20:10.251Z,22.76
2022-08-05T11:24:04.032Z,22.85
2022-08-05T11:27:50.860Z,22.86
2022-08-05T11:30:58.593Z,22.80
2022-08-05T11:34:05.074Z,22.74
2022-08-05T11:38:30.195Z,22.64
2022-08-05T11:41:12.675Z,22.59
2022-08-05T11:44:53.198Z,22.47
2022-08-05T11:47:49.896Z,22.33
2022-08-05T11:50:54.111Z,22.22
2022-08-05T11:53:58.066Z,22.13
2022-08-05T11:57:08.482Z,22.08
2022-08-05T12:00:30.744Z,22.02
2022-08-05T12:03:55.724Z,21.95
2022-08-05T12:07:01.769Z,21.90
2022-08-05T12:10:09.467Z,21.85
2022-08-05T12:13:28.068Z,21.82
2022-08-05T12:16:45.144Z,21.79
2022-08-05T12:20:26.026Z,21.75
2022-08-05T12:23:18.638Z,21.71
2022-08-05T12:26:23.845Z,21.66
2022-08-05T12:29:38.024Z,21.65
2022-08-05T12:32:50.350Z,21.61
2022-08-05T12:35:53.709Z,21.58
2022-08-05T12:38:58.580Z,21.54
2022-08-05T12:42:01.663Z,21.50
2022-08-05T12:45:09.387Z,21.47
2022-08-05T12:48:26.906Z,21.44
2022-08-05T12:52:12.570Z,21.41
2022-08-05T12:54:55.515Z,21.38
2022-08-05T12:58:50.149Z,21.32
2022-08-05T13:02:01.314Z,21.28
2022-08-05T13:04:54.457Z,21.24
2022-08-05T13:08:01.414Z,21.19
2022-08-05T13:11:04.792Z,21.11
2022-08-05T13:14:25.005Z,21.07
2022-08-05T13:17:41.998Z,20.97
2022-08-05T13:20:45.515Z,20.91
2022-08-05T13:23:50.708Z,20.86
2022-08-05T13:26:55.367Z,20.76
2022-08-05T13:30:31.674Z,20.68
2022-08-05T13:34:22.600Z,20.65
2022-08-05T13:36:45.665Z,20.56
2022-08-05T13:40:16.064Z,20.49
2022-08-05T13:43:14.293Z,20.44
2022-08-05T13:46:43.644Z,20.36
2022-08-05T13:49:49.948Z,20.30
2022-08-05T13:52:53.839Z,20.26
2022-08-05T13:56:01.940Z,20.25
2022-08-05T13:59:06.317Z,20.24
2022-08-05T14:02:26.463Z,20.23
2022-08-05T14:06:04.908Z,20.21
2022-08-05T14:08:53.223Z,20.19
2022-08-05T14:12:04.178Z,20.16
2022-08-05T14:16:05.754Z,20.15
2022-08-05T14:18:42.949Z,20.12
2022-08-05T14:22:08.498Z,20.03
2022-08-05T14:25:21.759Z,19.99
2022-08-05T14:28:31.548Z,19.94
2022-08-05T14:32:02.702Z,19.90
2022-08-05T14:34:58.649Z,19.86
2022-08-05T14:38:01.774Z,19.78
2022-08-05T14:41:07.634Z,19.72
2022-08-05T14:44:20.026Z,19.64
2022-08-05T14:48:03.447Z,19.56
2022-08-05T14:50:47.166Z,19.46
2022-08-05T14:54:26.138Z,19.43
2022-08-05T14:57:15.407Z,19.25
2022-08-05T15:00:20.107Z,19.19
2022-08-05T15:03:23.270Z,19.05
2022-08-05T15:06:27.923Z,18.97
2022-08-05T15:09:51.550Z,18.89
2022-08-05T15:13:03.322Z,18.81
2022-08-05T15:16:07.667Z,18.74
2022-08-05T15:19:23.709Z,18.63
2022-08-05T15:22:28.137Z,18.55
2022-08-05T15:25:50.934Z,18.55
2022-08-05T15:28:54.432Z,18.41
2022-08-05T15:31:57.555Z,18.29
2022-08-05T15:35:10.866Z,18.19
2022-08-05T15:38:47.856Z,18.11
2022-08-05T15:41:57.743Z,18.02
2022-08-05T15:45:01.837Z,17.97
2022-08-05T15:48:05.424Z,17.84
2022-08-05T15:51:09.926Z,17.74
2022-08-05T15:54:15.178Z,17.63
2022-08-05T15:57:18.771Z,17.55
2022-08-05T16:00:26.038Z,17.41
2022-08-05T16:03:35.810Z,17.35
2022-08-05T16:06:44.256Z,17.32
2022-08-05T16:09:47.417Z,17.24
2022-08-05T16:12:51.139Z,17.17
2022-08-05T16:15:55.652Z,17.04
2022-08-05T16:18:58.917Z,16.96
2022-08-05T16:22:03.795Z,16.97
2022-08-05T16:25:10.032Z,16.80
2022-08-05T16:28:14.189Z,16.73
2022-08-05T16:31:18.760Z,16.65
2022-08-05T16:34:22.700Z,16.61
2022-08-05T16:38:03.039Z,16.54
2022-08-05T16:40:55.346Z,16.50
2022-08-05T16:43:59.132Z,16.51
2022-08-05T16:47:02.834Z,16.46
2022-08-05T16:50:09.176Z,16.41
2022-08-05T16:53:22.863Z,16.35
2022-08-05T16:56:36.388Z,16.24
2022-08-05T17:00:04.358Z,16.10
2022-08-05T17:03:03.900Z,16.01
2022-08-05T17:06:18.615Z,15.98
2022-08-05T17:09:23.159Z,15.97
2022-08-05T17:12:50.565Z,15.97
2022-08-05T17:15:55.455Z,15.85
2022-08-05T17:19:10.802Z,15.74
2022-08-05T17:22:24.544Z,15.65
2022-08-05T17:25:39.199Z,15.60
2022-08-05T17:28:43.000Z,15.64
2022-08-05T17:31:58.930Z,15.61
2022-08-05T17:35:02.652Z,15.60
2022-08-05T17:38:09.529Z,15.60
2022-08-05T17:42:28.385Z,15.56
2022-08-05T17:44:36.695Z,15.54
2022-08-05T17:47:40.091Z,15.51
2022-08-05T17:50:43.068Z,15.52
2022-08-05T17:53:54.476Z,15.50
2022-08-05T17:56:58.520Z,15.48
2022-08-05T18:00:03.761Z,15.46
2022-08-05T18:03:08.864Z,15.42
2022-08-05T18:06:14.987Z,15.41
2022-08-05T18:09:18.680Z,15.40
2022-08-05T18:12:24.095Z,15.44
2022-08-05T18:15:28.215Z,15.48
2022-08-05T18:18:40.768Z,15.49
2022-08-05T18:22:07.530Z,15.53
2022-08-05T18:25:07.475Z,15.56
2022-08-05T18:28:12.463Z,15.53
2022-08-05T18:31:24.304Z,15.53
2022-08-05T18:34:35.076Z,15.52
2022-08-05T18:37:44.542Z,15.47
2022-08-05T18:41:53.847Z,15.38
2022-08-05T18:44:11.417Z,15.23
2022-08-05T18:47:15.815Z,15.08
2022-08-05T18:50:45.236Z,14.92
2022-08-05T18:53:50.353Z,14.82
2022-08-05T18:56:53.661Z,14.75
2022-08-05T19:00:03.464Z,14.73
2022-08-05T19:03:10.645Z,14.68
2022-08-05T19:06:21.649Z,14.66
2022-08-05T19:09:25.563Z,14.63
2022-08-05T19:12:32.781Z,14.60
2022-08-05T19:15:57.485Z,14.60
2022-08-05T19:18:58.881Z,14.67
2022-08-05T19:22:01.885Z,14.77
2022-08-05T19:25:05.453Z,14.82
2022-08-05T19:28:08.453Z,14.85
2022-08-05T19:31:13.675Z,14.91
2022-08-05T19:34:21.269Z,14.95
2022-08-05T19:37:47.291Z,14.98
2022-08-05T19:40:49.029Z,15.00
2022-08-05T19:44:04.196Z,15.00
2022-08-05T19:47:09.588Z,14.98
2022-08-05T19:50:13.073Z,14.97
2022-08-05T19:53:16.107Z,14.95
2022-08-05T19:56:39.233Z,14.95
2022-08-05T19:59:55.935Z,14.94
2022-08-05T20:03:14.335Z,14.91
2022-08-05T20:06:28.762Z,14.90
2022-08-05T20:09:54.395Z,14.88
2022-08-05T20:12:55.834Z,14.85
2022-08-05T20:15:59.562Z,14.86
2022-08-05T20:19:02.977Z,14.84
2022-08-05T20:22:06.347Z,14.84
2022-08-05T20:25:12.783Z,14.83
2022-08-05T20:28:15.777Z,14.82
2022-08-05T20:31:21.759Z,14.80
2022-08-05T20:34:31.612Z,14.78
2022-08-05T20:38:05.540Z,14.79
2022-08-05T20:40:58.284Z,14.77
2022-08-05T20:44:06.155Z,14.75
2022-08-05T20:47:21.365Z,14.74
2022-08-05T20:50:37.734Z,14.72
2022-08-05T20:53:56.273Z,14.69
2022-08-05T20:57:00.126Z,14.64
2022-08-05T21:00:20.552Z,14.55
2022-08-05T21:03:34.180Z,14.48
2022-08-05T21:06:45.122Z,14.44
2022-08-05T21:09:53.291Z,14.39
2022-08-05T21:12:57.944Z,14.38
2022-08-05T21:16:13.246Z,14.37
2022-08-05T21:19:16.864Z,14.36
2022-08-05T21:22:23.861Z,14.34
2022-08-05T21:25:33.800Z,14.34
2022-08-05T21:28:37.173Z,14.35
2022-08-05T21:31:41.945Z,14.36
2022-08-05T21:34:45.093Z,14.33
2022-08-05T21:38:08.306Z,14.35
2022-08-05T21:41:12.076Z,14.37
2022-08-05T21:44:15.509Z,14.39
2022-08-05T21:47:55.272Z,14.41
2022-08-05T21:50:44.962Z,14.37
2022-08-05T21:54:03.564Z,14.41
2022-08-05T21:57:30.948Z,14.48
2022-08-05T22:00:30.750Z,14.58
2022-08-05T22:03:51.620Z,14.70
2022-08-05T22:06:57.216Z,15.14
2022-08-05T22:10:00.549Z,17.16
2022-08-05T22:14:05.538Z,20.24
2022-08-05T22:16:41.952Z,23.23
2022-08-05T22:20:00.866Z,25.43
2022-08-05T22:24:01.882Z,27.09
2022-08-05T22:27:14.056Z,28.59
2022-08-05T22:30:20.279Z,29.52
2022-08-05T22:33:58.439Z,30.33
2022-08-05T22:36:46.814Z,30.75
2022-08-05T22:39:51.470Z,31.09
2022-08-05T22:42:58.515Z,31.74
2022-08-05T22:46:04.639Z,32.41
2022-08-05T22:50:17.368Z,33.04
2022-08-05T22:52:37.117Z,33.44
2022-08-05T22:55:57.338Z,33.95
2022-08-05T22:59:42.617Z,34.37
2022-08-05T23:02:29.449Z,35.18
2022-08-05T23:05:36.027Z,35.90
2022-08-05T23:08:39.263Z,36.28
2022-08-05T23:11:46.582Z,36.39
2022-08-05T23:14:53.217Z,36.54
2022-08-05T23:18:01.154Z,36.94
2022-08-05T23:21:06.437Z,36.89
2022-08-05T23:24:13.419Z,36.97
2022-08-05T23:27:16.670Z,39.36
2022-08-05T23:30:27.157Z,37.69
2022-08-05T23:34:02.948Z,37.14
2022-08-05T23:36:55.221Z,37.28
2022-08-05T23:39:58.004Z,39.38
2022-08-05T23:43:03.139Z,37.56
2022-08-05T23:46:26.197Z,37.32
2022-08-05T23:49:35.567Z,37.33
2022-08-05T23:52:49.970Z,37.42
2022-08-05T23:55:53.593Z,37.40
2022-08-05T23:58:58.702Z,37.32
